Friday, April 18, 2014
08:02 UTC
  |  Log In   |  Register Free
Airport Search:

Owatonna Degner Regional Airport
(KOWA)

Owatonna Degner Regional Airport Diagram
No Airport Diagram Available

FAA data valid effective April 3, 2014 until May 29, 2014 (unless otherwise noted).

 
 
 
 
 
 
 
 
 
 
 
 
 
 

Current Aviation Weather for Owatonna Degner Regional Airport (KOWA)

The most recent METAR observation for KOWA was updated at: 0654 UTC
METAR Summary (Translated METAR)
KOWA
180654Z AUTO 00000KT 5SM BR CLR M01/M03 A3031 RMK AO2
KFBL
(12.5 nm NW from KOWA)
180754Z AUTO 00000KT 3SM HZ CLR M02/M04 A3032 RMK AO2
TAF
No TAF information found within 50 nm of KOWA
  Airport Weather Conditions for KOWA

 Current Weather at OWA
30° F
Fog/Mist
North winds at 0.0 mph
OWA NOAA Radar

Pressure: 30.31 in
Humidity: 86%
Wind: Calm
Dew Point: 26.6°F
Visibility: 5.00 mi


Airport Weather Forecast for KOWA

Translated METAR and TAF for KOWA
Translated METAR for KOWA (0802 UTC 18 April 2014)
found at http://aviationweather.gov/adds/metars/
 
METAR text: KOWA 180754Z AUTO 00000KT 4SM BR CLR M02/M03 A3032 RMK AO2
Conditions at: KOWA (OWATONNA , MN, US) observed 0754 UTC 18 April 2014
Temperature: -2.0°C (28°F)
Dewpoint: -3.0°C (27°F) [RH = 93%]
Pressure (altimeter): 30.32 inches Hg (1026.8 mb)
Winds: calm
Visibility: 4 miles (6 km)
Ceiling: at least 12,000 feet AGL
Clouds: sky clear below 12,000 feet AGL
Weather: BR  (mist)
Translated TAF for KOWA

There is no translated TAF available for this airport

Find All Airport Services Find A Hotel Find A Rental Car Find A Golf Course Find A Restaurant $100 Hamburger



FBO's on the Field
FBO Company Facility Photos Services Transportation Aviation Fuel Prices: Prices include tax
Catering Weather Repair Courtesy Rental Type 100LL JetA JetA+ MOGAS 8087
 
Owatonna Degner Regional Airport

This FBO has not yet been rated
FS:Avfuel
Last Updated: Mar-10
Login to update fuel prices
SS:
Contact Owatonna Degner Regional AirportMore FBO Information
 
Add another FBO Facility Photos Catering Weather Repair Courtesy Rental Type 100LL JetA JetA+ MOGAS 8087
Services Transportation Aviation Fuel Prices: Prices include tax


GlobalAir.com Airport Resource Center model-print
model-print
model-print
model-print